createdAt,value
2023-04-18T00:01:34.721Z,11.81
2023-04-18T00:04:05.632Z,11.79
2023-04-18T00:06:38.576Z,11.77
2023-04-18T00:09:07.003Z,11.76
2023-04-18T00:11:35.184Z,11.75
2023-04-18T00:14:03.477Z,11.75
2023-04-18T00:16:36.211Z,11.75
2023-04-18T00:19:05.327Z,11.75
2023-04-18T00:21:35.456Z,11.74
2023-04-18T00:24:03.422Z,11.73
2023-04-18T00:26:31.438Z,11.73
2023-04-18T00:28:59.797Z,11.73
2023-04-18T00:31:27.925Z,11.72
2023-04-18T00:33:56.082Z,11.71
2023-04-18T00:36:25.088Z,11.71
2023-04-18T00:38:53.069Z,11.69
2023-04-18T00:41:25.546Z,11.68
2023-04-18T00:43:56.589Z,11.68
2023-04-18T00:46:25.457Z,11.65
2023-04-18T00:48:53.561Z,11.61
2023-04-18T00:51:21.751Z,11.56
2023-04-18T00:53:49.783Z,11.54
2023-04-18T00:56:19.496Z,11.51
2023-04-18T00:58:47.566Z,11.46
2023-04-18T01:01:16.345Z,11.45
2023-04-18T01:03:45.265Z,11.44
2023-04-18T01:06:16.374Z,11.44
2023-04-18T01:08:45.806Z,11.42
2023-04-18T01:11:13.884Z,11.42
2023-04-18T01:13:42.146Z,11.43
2023-04-18T01:16:10.456Z,11.44
2023-04-18T01:18:40.336Z,11.44
2023-04-18T01:21:08.722Z,11.46
2023-04-18T01:23:37.508Z,11.46
2023-04-18T01:26:07.525Z,11.46
2023-04-18T01:28:37.035Z,11.46
2023-04-18T01:31:05.408Z,11.46
2023-04-18T01:33:33.425Z,11.46
2023-04-18T01:36:01.508Z,11.46
2023-04-18T01:38:33.131Z,11.46
2023-04-18T01:41:02.599Z,11.45
2023-04-18T01:43:30.680Z,11.45
2023-04-18T01:45:59.051Z,11.45
2023-04-18T01:48:27.113Z,11.45
2023-04-18T01:50:55.126Z,11.46
2023-04-18T01:53:24.173Z,11.45
2023-04-18T01:55:52.250Z,11.46
2023-04-18T01:58:23.771Z,11.45
2023-04-18T02:00:52.880Z,11.43
2023-04-18T02:03:22.727Z,11.42
2023-04-18T02:05:52.012Z,11.40
2023-04-18T02:08:20.007Z,11.39
2023-04-18T02:10:48.099Z,11.37
2023-04-18T02:13:16.243Z,11.37
2023-04-18T02:15:47.722Z,11.36
2023-04-18T02:18:17.701Z,11.36
2023-04-18T02:20:48.950Z,11.35
2023-04-18T02:23:17.083Z,11.35
2023-04-18T02:25:45.283Z,11.35
2023-04-18T02:28:15.412Z,11.34
2023-04-18T02:30:43.471Z,11.33
2023-04-18T02:33:11.466Z,11.33
2023-04-18T02:35:41.214Z,11.32
2023-04-18T02:38:09.967Z,11.29
2023-04-18T02:40:38.011Z,11.26
2023-04-18T02:43:06.329Z,11.24
2023-04-18T02:45:34.622Z,11.21
2023-04-18T02:48:02.811Z,11.18
2023-04-18T02:50:32.132Z,11.16
2023-04-18T02:53:00.172Z,11.13
2023-04-18T02:55:34.785Z,11.10
2023-04-18T02:58:03.370Z,11.07
2023-04-18T03:00:50.973Z,11.05
2023-04-18T03:03:38.692Z,11.04
2023-04-18T03:06:21.406Z,11.02
2023-04-18T03:08:49.502Z,11.00
2023-04-18T03:11:18.352Z,10.97
2023-04-18T03:13:46.561Z,10.95
2023-04-18T03:16:15.909Z,10.93
2023-04-18T03:18:44.158Z,10.91
2023-04-18T03:21:13.865Z,10.89
2023-04-18T03:23:42.181Z,10.88
2023-04-18T03:26:13.830Z,10.86
2023-04-18T03:28:42.051Z,10.84
2023-04-18T03:31:10.793Z,10.83
2023-04-18T03:33:43.579Z,10.82
2023-04-18T03:36:15.080Z,10.80
2023-04-18T03:38:43.224Z,10.80
2023-04-18T03:41:11.292Z,10.80
2023-04-18T03:43:39.730Z,10.81
2023-04-18T03:46:07.913Z,10.84
2023-04-18T03:48:37.524Z,10.87
2023-04-18T03:51:09.621Z,10.90
2023-04-18T03:53:38.211Z,10.93
2023-04-18T03:56:07.263Z,10.97
2023-04-18T03:58:55.563Z,11.01
2023-04-18T04:01:23.828Z,11.04
2023-04-18T04:03:56.112Z,11.07
2023-04-18T04:06:24.467Z,11.11
2023-04-18T04:08:52.560Z,11.16
2023-04-18T04:11:25.140Z,11.21
2023-04-18T04:13:53.772Z,11.26
2023-04-18T04:16:25.271Z,11.31
2023-04-18T04:18:54.108Z,11.35
2023-04-18T04:21:24.474Z,11.38
2023-04-18T04:23:58.909Z,11.40
2023-04-18T04:26:31.758Z,11.44
2023-04-18T04:29:05.144Z,11.50
2023-04-18T04:31:34.677Z,11.58
2023-04-18T04:34:05.046Z,11.64
2023-04-18T04:36:34.969Z,11.68
2023-04-18T04:39:05.645Z,11.71
2023-04-18T04:41:42.661Z,11.75
2023-04-18T04:44:12.402Z,11.77
2023-04-18T04:46:42.330Z,11.83
2023-04-18T04:49:15.572Z,11.87
2023-04-18T04:51:46.789Z,11.92
2023-04-18T04:54:15.864Z,11.96
2023-04-18T04:56:46.525Z,11.99
2023-04-18T04:59:14.918Z,12.02
2023-04-18T05:01:46.777Z,12.06
2023-04-18T05:04:26.659Z,12.08
2023-04-18T05:06:54.916Z,12.09
2023-04-18T05:09:26.288Z,12.10
2023-04-18T05:11:54.304Z,12.10
2023-04-18T05:14:23.039Z,12.11
2023-04-18T05:16:51.178Z,12.13
2023-04-18T05:19:19.315Z,12.10
2023-04-18T05:21:47.307Z,12.10
2023-04-18T05:24:15.308Z,12.12
2023-04-18T05:26:43.742Z,12.19
2023-04-18T05:29:11.790Z,12.25
2023-04-18T05:31:39.780Z,12.30
2023-04-18T05:34:13.152Z,12.32
2023-04-18T05:36:41.863Z,12.30
2023-04-18T05:39:09.830Z,12.31
2023-04-18T05:41:37.901Z,12.41
2023-04-18T05:44:06.039Z,12.52
2023-04-18T05:46:34.817Z,12.64
2023-04-18T05:49:03.644Z,12.76
2023-04-18T05:51:32.066Z,12.88
2023-04-18T05:54:01.440Z,13.00
2023-04-18T05:56:30.331Z,13.10
2023-04-18T05:58:58.353Z,13.17
2023-04-18T06:01:28.512Z,13.24
2023-04-18T06:03:56.829Z,13.28
2023-04-18T06:06:25.884Z,13.35
2023-04-18T06:08:54.605Z,13.37
2023-04-18T06:11:22.746Z,13.37
2023-04-18T06:13:53.472Z,13.39
2023-04-18T06:16:24.180Z,13.39
2023-04-18T06:18:52.351Z,13.26
2023-04-18T06:21:21.457Z,13.17
2023-04-18T06:23:56.712Z,13.05
2023-04-18T06:26:24.766Z,12.98
2023-04-18T06:28:52.980Z,12.86
2023-04-18T06:31:23.258Z,12.77
2023-04-18T06:33:51.344Z,12.71
2023-04-18T06:36:19.874Z,12.66
2023-04-18T06:38:47.896Z,12.58
2023-04-18T06:41:16.099Z,12.55
2023-04-18T06:43:59.238Z,12.58
2023-04-18T06:46:30.996Z,12.65
2023-04-18T06:48:59.337Z,12.68
2023-04-18T06:51:27.628Z,12.72
2023-04-18T06:53:55.797Z,12.72
2023-04-18T06:56:23.955Z,12.74
2023-04-18T06:58:54.777Z,12.80
2023-04-18T07:01:22.704Z,12.88
2023-04-18T07:03:50.774Z,12.97
2023-04-18T07:06:19.029Z,13.08
2023-04-18T07:08:47.202Z,13.26
2023-04-18T07:11:18.509Z,13.30
2023-04-18T07:13:49.366Z,13.39
2023-04-18T07:16:17.482Z,13.49
2023-04-18T07:18:45.480Z,13.59
2023-04-18T07:21:13.500Z,13.69
2023-04-18T07:23:41.461Z,13.80
2023-04-18T07:26:10.079Z,13.92
2023-04-18T07:28:38.217Z,14.00
2023-04-18T07:31:11.048Z,14.05
2023-04-18T07:33:39.149Z,14.26
2023-04-18T07:36:07.502Z,14.50
2023-04-18T07:38:35.548Z,14.70
2023-04-18T07:41:03.898Z,14.92
2023-04-18T07:43:32.029Z,15.13
2023-04-18T07:46:00.834Z,15.26
2023-04-18T07:48:29.043Z,15.44
2023-04-18T07:50:59.653Z,15.70
2023-04-18T07:53:27.771Z,15.84
2023-04-18T07:55:55.833Z,15.92
2023-04-18T07:58:35.071Z,16.06
2023-04-18T08:01:04.582Z,16.21
2023-04-18T08:03:36.174Z,16.25
2023-04-18T08:06:07.788Z,16.28
2023-04-18T08:08:39.923Z,16.31
2023-04-18T08:11:39.212Z,16.32
2023-04-18T08:14:07.292Z,16.42
2023-04-18T08:16:37.044Z,16.61
2023-04-18T08:19:06.356Z,16.83
2023-04-18T08:21:36.774Z,17.02
2023-04-18T08:24:29.891Z,17.21
2023-04-18T08:26:57.939Z,17.35
2023-04-18T08:29:37.248Z,17.47
2023-04-18T08:32:08.687Z,17.55
2023-04-18T08:34:37.203Z,17.59
2023-04-18T08:37:08.949Z,17.71
2023-04-18T08:39:37.026Z,17.90
2023-04-18T08:42:06.452Z,18.12
2023-04-18T08:44:35.935Z,18.28
2023-04-18T08:47:35.404Z,18.36
2023-04-18T08:50:04.084Z,18.15
2023-04-18T08:52:43.730Z,18.22
2023-04-18T08:55:12.297Z,18.37
2023-04-18T08:57:45.502Z,18.30
2023-04-18T09:00:14.468Z,18.29
2023-04-18T09:03:32.445Z,18.27
2023-04-18T09:05:40.280Z,17.93
2023-04-18T09:08:27.400Z,17.64
2023-04-18T09:11:31.790Z,17.02
2023-04-18T09:14:46.985Z,16.25
2023-04-18T09:17:35.329Z,15.91
2023-04-18T09:20:05.931Z,16.04
2023-04-18T09:22:53.401Z,16.24
2023-04-18T09:25:34.902Z,16.39
2023-04-18T09:28:21.191Z,16.60
2023-04-18T09:30:57.176Z,16.83
2023-04-18T09:34:48.223Z,16.93
2023-04-18T09:37:14.402Z,16.53
2023-04-18T09:39:43.998Z,16.53
2023-04-18T09:42:12.840Z,16.62
2023-04-18T09:44:59.713Z,16.69
2023-04-18T09:47:31.071Z,16.77
2023-04-18T09:50:01.920Z,16.84
2023-04-18T09:52:42.680Z,16.78
2023-04-18T09:55:40.484Z,16.66
2023-04-18T09:58:15.741Z,16.50
2023-04-18T10:00:46.923Z,16.51
2023-04-18T10:03:18.707Z,16.59
2023-04-18T10:05:48.277Z,16.90
2023-04-18T10:08:17.025Z,17.30
2023-04-18T10:10:45.008Z,17.62
2023-04-18T10:13:14.481Z,17.85
2023-04-18T10:15:44.258Z,17.77
2023-04-18T10:18:19.116Z,17.41
2023-04-18T10:20:48.820Z,17.44
2023-04-18T10:23:32.310Z,17.85
2023-04-18T10:26:01.753Z,18.37
2023-04-18T10:28:51.239Z,18.66
2023-04-18T10:31:39.906Z,18.83
2023-04-18T10:34:19.819Z,18.68
2023-04-18T10:37:04.502Z,18.65
2023-04-18T10:39:49.617Z,18.76
2023-04-18T10:42:17.713Z,19.01
2023-04-18T10:45:17.073Z,19.22
2023-04-18T10:47:45.331Z,19.12
2023-04-18T10:50:13.683Z,18.98
2023-04-18T10:52:42.738Z,18.86
2023-04-18T10:55:11.426Z,18.76
2023-04-18T10:57:40.932Z,18.71
2023-04-18T11:00:14.711Z,18.50
2023-04-18T11:03:03.379Z,18.28
2023-04-18T11:05:32.035Z,18.07
2023-04-18T11:08:01.091Z,18.05
2023-04-18T11:10:29.613Z,18.24
2023-04-18T11:13:04.444Z,18.54
2023-04-18T11:15:32.414Z,18.82
2023-04-18T11:18:03.595Z,18.95
2023-04-18T11:20:46.124Z,19.04
2023-04-18T11:23:21.850Z,19.15
2023-04-18T11:25:53.735Z,19.33
2023-04-18T11:28:24.856Z,19.33
2023-04-18T11:31:44.963Z,19.12
2023-04-18T11:34:16.265Z,18.81
2023-04-18T11:36:48.060Z,18.53
2023-04-18T11:39:35.044Z,18.70
2023-04-18T11:42:03.154Z,18.86
2023-04-18T11:44:31.202Z,18.87
2023-04-18T11:46:59.218Z,18.69
2023-04-18T11:49:33.038Z,18.45
2023-04-18T11:52:13.602Z,18.40
2023-04-18T11:54:44.928Z,18.40
2023-04-18T11:57:23.139Z,18.57
2023-04-18T11:59:59.037Z,18.75
2023-04-18T12:02:48.345Z,18.90
2023-04-18T12:05:26.592Z,19.19
2023-04-18T12:07:54.917Z,19.36
2023-04-18T12:10:27.527Z,19.34
2023-04-18T12:13:07.106Z,19.19
2023-04-18T12:15:39.641Z,19.00
2023-04-18T12:18:10.476Z,18.95
2023-04-18T12:20:46.413Z,19.00
2023-04-18T12:23:30.974Z,19.09
2023-04-18T12:26:19.721Z,19.22
2023-04-18T12:28:51.309Z,19.38
2023-04-18T12:31:19.500Z,19.32
2023-04-18T12:33:47.513Z,19.32
2023-04-18T12:36:16.188Z,19.38
2023-04-18T12:38:44.564Z,19.37
2023-04-18T12:41:12.722Z,19.24
2023-04-18T12:43:40.830Z,19.02
2023-04-18T12:46:08.852Z,18.88
2023-04-18T12:48:36.996Z,18.91
2023-04-18T12:51:06.965Z,18.92
2023-04-18T12:53:35.011Z,19.09
2023-04-18T12:56:03.010Z,19.30
2023-04-18T12:58:34.877Z,19.44
2023-04-18T13:01:04.840Z,19.49
2023-04-18T13:03:34.072Z,19.35
2023-04-18T13:06:02.417Z,19.14
2023-04-18T13:08:30.485Z,19.07
2023-04-18T13:10:59.029Z,18.96
2023-04-18T13:13:27.069Z,18.90
2023-04-18T13:15:57.760Z,18.85
2023-04-18T13:18:26.022Z,18.91
2023-04-18T13:21:21.822Z,18.99
2023-04-18T13:23:49.999Z,18.99
2023-04-18T13:26:37.905Z,18.93
2023-04-18T13:29:09.219Z,18.89
2023-04-18T13:31:39.830Z,18.80
2023-04-18T13:34:10.465Z,18.73
2023-04-18T13:36:43.731Z,18.70
2023-04-18T13:39:20.399Z,18.59
2023-04-18T13:41:48.803Z,18.47
2023-04-18T13:44:19.766Z,18.38
2023-04-18T13:46:48.229Z,18.29
2023-04-18T13:49:21.316Z,18.28
2023-04-18T13:51:57.001Z,18.26
2023-04-18T13:54:48.883Z,18.22
2023-04-18T13:57:39.320Z,18.26
2023-04-18T14:00:14.595Z,18.31
2023-04-18T14:02:43.114Z,18.35
2023-04-18T14:05:14.238Z,18.36
2023-04-18T14:07:42.318Z,18.36
2023-04-18T14:10:10.920Z,18.36
2023-04-18T14:12:47.038Z,18.41
2023-04-18T14:15:15.430Z,18.48
2023-04-18T14:17:45.785Z,18.52
2023-04-18T14:20:24.555Z,18.49
2023-04-18T14:22:53.228Z,18.50
2023-04-18T14:25:24.087Z,18.51
2023-04-18T14:28:19.721Z,18.51
2023-04-18T14:30:58.153Z,18.52
2023-04-18T14:33:33.776Z,18.49
2023-04-18T14:36:15.380Z,18.42
2023-04-18T14:38:53.097Z,18.34
2023-04-18T14:41:21.327Z,18.28
2023-04-18T14:43:49.389Z,18.25
2023-04-18T14:46:17.726Z,18.23
2023-04-18T14:48:51.060Z,18.18
2023-04-18T14:51:19.359Z,18.10
2023-04-18T14:54:04.064Z,18.11
2023-04-18T14:56:32.281Z,18.15
2023-04-18T14:59:00.460Z,18.16
2023-04-18T15:01:28.609Z,18.16
2023-04-18T15:03:59.750Z,18.12
2023-04-18T15:06:33.679Z,18.13
2023-04-18T15:09:03.141Z,18.10
2023-04-18T15:11:33.546Z,18.04
2023-04-18T15:14:01.702Z,17.99
2023-04-18T15:16:31.202Z,17.94
2023-04-18T15:19:01.806Z,17.89
2023-04-18T15:21:29.859Z,17.85
2023-04-18T15:24:08.618Z,17.77
2023-04-18T15:26:39.562Z,17.73
2023-04-18T15:29:12.684Z,17.72
2023-04-18T15:31:40.740Z,17.72
2023-04-18T15:34:09.325Z,17.67
2023-04-18T15:36:43.005Z,17.61
2023-04-18T15:39:11.003Z,17.62
2023-04-18T15:41:39.398Z,17.62
2023-04-18T15:44:08.754Z,17.63
2023-04-18T15:46:36.965Z,17.59
2023-04-18T15:49:05.873Z,17.55
2023-04-18T15:51:36.470Z,17.53
2023-04-18T15:54:04.797Z,17.50
2023-04-18T15:56:34.876Z,17.51
2023-04-18T15:59:06.172Z,17.53
2023-04-18T16:01:35.794Z,17.56
2023-04-18T16:04:03.938Z,17.60
2023-04-18T16:06:32.858Z,17.66
2023-04-18T16:09:04.030Z,17.69
2023-04-18T16:11:31.952Z,17.74
2023-04-18T16:13:59.952Z,17.78
2023-04-18T16:16:35.421Z,17.81
2023-04-18T16:19:05.911Z,17.81
2023-04-18T16:21:34.154Z,17.79
2023-04-18T16:24:02.498Z,17.75
2023-04-18T16:26:33.434Z,17.71
2023-04-18T16:29:01.408Z,17.63
2023-04-18T16:31:29.491Z,17.59
2023-04-18T16:33:57.540Z,17.48
2023-04-18T16:36:26.234Z,17.35
2023-04-18T16:38:54.435Z,17.25
2023-04-18T16:41:22.369Z,17.14
2023-04-18T16:43:50.761Z,17.03
2023-04-18T16:46:19.258Z,16.94
2023-04-18T16:48:52.290Z,16.85
2023-04-18T16:51:20.573Z,16.75
2023-04-18T16:53:49.286Z,16.68
2023-04-18T16:56:20.221Z,16.60
2023-04-18T16:58:48.059Z,16.53
2023-04-18T17:01:15.958Z,16.44
2023-04-18T17:03:44.580Z,16.34
2023-04-18T17:06:12.994Z,16.26
2023-04-18T17:08:41.044Z,16.21
2023-04-18T17:11:09.152Z,16.13
2023-04-18T17:13:41.651Z,16.05
2023-04-18T17:16:09.716Z,15.92
2023-04-18T17:18:40.251Z,15.82
2023-04-18T17:21:12.901Z,15.72
2023-04-18T17:23:42.681Z,15.63
2023-04-18T17:26:10.739Z,15.53
2023-04-18T17:28:39.865Z,15.43
2023-04-18T17:31:08.154Z,15.36
2023-04-18T17:33:37.348Z,15.29
2023-04-18T17:36:06.446Z,15.23
2023-04-18T17:38:34.488Z,15.14
2023-04-18T17:41:04.806Z,15.04
2023-04-18T17:43:32.810Z,14.97
2023-04-18T17:46:02.458Z,14.91
2023-04-18T17:48:33.266Z,14.84
2023-04-18T17:51:04.747Z,14.78
2023-04-18T17:53:32.819Z,14.73
2023-04-18T17:56:00.927Z,14.68
2023-04-18T17:58:29.052Z,14.65
2023-04-18T18:00:57.134Z,14.60
2023-04-18T18:03:25.440Z,14.56
2023-04-18T18:05:55.076Z,14.54
2023-04-18T18:08:23.173Z,14.48
2023-04-18T18:10:51.189Z,14.41
2023-04-18T18:13:19.332Z,14.33
2023-04-18T18:15:47.191Z,14.26
2023-04-18T18:18:29.857Z,14.20
2023-04-18T18:20:58.481Z,14.14
2023-04-18T18:23:26.732Z,14.05
2023-04-18T18:25:54.951Z,13.97
2023-04-18T18:28:23.052Z,13.91
2023-04-18T18:30:51.202Z,13.85
2023-04-18T18:33:19.119Z,13.79
2023-04-18T18:35:47.074Z,13.73
2023-04-18T18:38:15.195Z,13.69
2023-04-18T18:40:43.311Z,13.63
2023-04-18T18:43:11.482Z,13.58
2023-04-18T18:45:39.432Z,13.53
2023-04-18T18:48:07.908Z,13.48
2023-04-18T18:50:36.006Z,13.43
2023-04-18T18:53:06.130Z,13.39
2023-04-18T18:55:34.154Z,13.35
2023-04-18T18:58:02.699Z,13.30
2023-04-18T19:00:30.820Z,13.23
2023-04-18T19:02:58.910Z,13.15
2023-04-18T19:05:30.179Z,13.11
2023-04-18T19:07:58.043Z,13.07
2023-04-18T19:10:26.334Z,13.03
2023-04-18T19:12:54.263Z,12.98
2023-04-18T19:15:23.013Z,12.95
2023-04-18T19:17:51.390Z,12.91
2023-04-18T19:20:19.624Z,12.88
2023-04-18T19:22:47.604Z,12.87
2023-04-18T19:25:15.686Z,12.84
2023-04-18T19:27:45.819Z,12.84
2023-04-18T19:30:16.205Z,12.82
2023-04-18T19:32:44.411Z,12.81
2023-04-18T19:35:13.343Z,12.81
2023-04-18T19:37:41.910Z,12.80
2023-04-18T19:40:10.552Z,12.77
2023-04-18T19:42:38.449Z,12.77
2023-04-18T19:45:06.991Z,12.75
2023-04-18T19:47:35.257Z,12.74
2023-04-18T19:50:03.286Z,12.71
2023-04-18T19:52:31.256Z,12.69
2023-04-18T19:54:59.215Z,12.67
2023-04-18T19:57:28.982Z,12.64
2023-04-18T19:59:56.935Z,12.63
2023-04-18T20:02:25.068Z,12.60
2023-04-18T20:04:53.354Z,12.57
2023-04-18T20:07:21.543Z,12.52
2023-04-18T20:09:52.596Z,12.50
2023-04-18T20:12:20.516Z,12.47
2023-04-18T20:14:48.566Z,12.43
2023-04-18T20:17:16.644Z,12.41
2023-04-18T20:19:47.149Z,12.40
2023-04-18T20:22:15.699Z,12.39
2023-04-18T20:24:45.077Z,12.36
2023-04-18T20:27:13.000Z,12.33
2023-04-18T20:29:41.059Z,12.31
2023-04-18T20:32:11.433Z,12.29
2023-04-18T20:34:39.594Z,12.27
2023-04-18T20:37:07.536Z,12.24
2023-04-18T20:39:36.982Z,12.21
2023-04-18T20:42:05.100Z,12.18
2023-04-18T20:44:35.209Z,12.14
2023-04-18T20:47:03.380Z,12.09
2023-04-18T20:49:31.382Z,12.06
2023-04-18T20:52:10.888Z,12.02
2023-04-18T20:54:39.152Z,12.00
2023-04-18T20:57:07.155Z,11.96
2023-04-18T20:59:35.340Z,11.92
2023-04-18T21:02:03.556Z,11.87
2023-04-18T21:04:31.705Z,11.84
2023-04-18T21:06:59.800Z,11.80
2023-04-18T21:09:27.884Z,11.76
2023-04-18T21:11:57.788Z,11.73
2023-04-18T21:14:28.090Z,11.70
2023-04-18T21:16:57.754Z,11.68
2023-04-18T21:19:28.246Z,11.67
2023-04-18T21:21:56.210Z,11.64
2023-04-18T21:24:24.233Z,11.56
2023-04-18T21:26:52.221Z,11.54
2023-04-18T21:29:21.651Z,11.51
2023-04-18T21:31:50.313Z,11.47
2023-04-18T21:34:18.349Z,11.43
2023-04-18T21:36:46.281Z,11.39
2023-04-18T21:39:14.276Z,11.35
2023-04-18T21:41:42.289Z,11.30
2023-04-18T21:44:10.714Z,11.26
2023-04-18T21:46:38.587Z,11.25
2023-04-18T21:49:07.137Z,11.22
2023-04-18T21:51:38.265Z,11.18
2023-04-18T21:54:07.708Z,11.16
2023-04-18T21:56:35.578Z,11.14
2023-04-18T21:59:03.852Z,11.11
2023-04-18T22:01:34.496Z,11.09
2023-04-18T22:04:02.894Z,11.05
2023-04-18T22:06:32.464Z,11.01
2023-04-18T22:09:06.303Z,10.98
2023-04-18T22:11:36.761Z,10.96
2023-04-18T22:14:05.262Z,10.94
2023-04-18T22:16:34.533Z,10.90
2023-04-18T22:19:03.792Z,10.85
2023-04-18T22:21:31.713Z,10.82
2023-04-18T22:24:02.885Z,10.80
2023-04-18T22:26:31.076Z,10.77
2023-04-18T22:29:15.746Z,10.74
2023-04-18T22:31:50.533Z,10.70
2023-04-18T22:34:18.603Z,10.66
2023-04-18T22:36:48.642Z,10.63
2023-04-18T22:39:16.631Z,10.61
2023-04-18T22:41:45.998Z,10.59
2023-04-18T22:44:15.799Z,10.56
2023-04-18T22:46:50.639Z,10.53
2023-04-18T22:49:18.541Z,10.50
2023-04-18T22:51:48.797Z,10.44
2023-04-18T22:54:16.841Z,10.41
2023-04-18T22:56:44.970Z,10.42
2023-04-18T22:59:15.515Z,10.43
2023-04-18T23:01:43.444Z,10.44
2023-04-18T23:04:11.531Z,10.40
2023-04-18T23:06:39.816Z,10.38
2023-04-18T23:09:11.513Z,10.34
2023-04-18T23:11:39.335Z,10.30
2023-04-18T23:14:08.832Z,10.26
2023-04-18T23:16:39.194Z,10.22
2023-04-18T23:19:07.251Z,10.19
2023-04-18T23:21:35.363Z,10.18
2023-04-18T23:24:06.588Z,10.16
2023-04-18T23:26:34.551Z,10.15
2023-04-18T23:29:02.545Z,10.13
2023-04-18T23:31:40.457Z,10.13
2023-04-18T23:34:10.389Z,10.10
2023-04-18T23:36:51.816Z,10.11
2023-04-18T23:39:19.927Z,10.10
2023-04-18T23:41:47.917Z,10.10
2023-04-18T23:44:18.314Z,10.10
2023-04-18T23:46:49.648Z,10.08
2023-04-18T23:49:17.615Z,10.07
2023-04-18T23:51:45.936Z,10.06
2023-04-18T23:54:14.086Z,10.06
2023-04-18T23:56:42.265Z,10.07
2023-04-18T23:59:10.203Z,10.06
